Time;durP1;ratioP1;P1;durP2;ratioP2;P2;SDS_P1;SDS_P2;PMS_P1;PMS_P2;Temp;Humidity;BMP_temperature;BMP_pressure;BME280_temperature;BME280_humidity;BME280_pressure;Samples;Min_cycle;Max_cycle;Signal;HPM_P1;HPM_P2
2023/01/10 00:01:21;;;;;;;2.20;2.10;;;;;;;;;;5032220;28;20246;-80
2023/01/10 00:03:48;;;;;;;3.37;2.17;;;;;;;;;;5032631;28;20210;-80
2023/01/10 00:06:15;;;;;;;2.70;2.50;;;;;;;;;;5032447;28;20269;-80
2023/01/10 00:08:42;;;;;;;2.47;2.27;;;;;;;;;;5032938;28;20261;-80
2023/01/10 00:13:53;;;;;;;2.63;2.40;;;;;;;;;;5032062;28;20253;-80
2023/01/10 00:16:20;;;;;;;2.60;2.40;;;;;;;;;;5032194;28;20317;-80
2023/01/10 00:18:47;;;;;;;2.30;2.10;;;;;;;;;;5032649;28;20202;-80
2023/01/10 00:21:14;;;;;;;2.40;2.30;;;;;;;;;;5032037;28;20246;-80
2023/01/10 00:23:42;;;;;;;2.17;2.07;;;;;;;;;;5032514;28;20210;-80
2023/01/10 00:26:11;;;;;;;2.60;2.40;;;;;;;;;;5032422;28;20240;-80
2023/01/10 00:28:38;;;;;;;2.50;2.30;;;;;;;;;;5032584;28;20247;-80
2023/01/10 00:31:05;;;;;;;3.07;2.50;;;;;;;;;;5031638;28;20241;-80
2023/01/10 00:33:33;;;;;;;3.00;2.27;;;;;;;;;;5032402;28;20222;-80
2023/01/10 00:36:00;;;;;;;2.67;2.47;;;;;;;;;;5031863;28;20642;-80
2023/01/10 00:38:29;;;;;;;2.67;2.47;;;;;;;;;;5032580;28;20202;-81
2023/01/10 00:40:58;;;;;;;4.30;2.30;;;;;;;;;;5031888;28;20237;-80
2023/01/10 00:46:12;;;;;;;3.50;2.20;;;;;;;;;;5031759;28;20269;-80
2023/01/10 00:48:39;;;;;;;2.90;2.60;;;;;;;;;;5032399;28;20283;-80
2023/01/10 00:51:06;;;;;;;3.47;2.40;;;;;;;;;;5031513;28;20238;-81
2023/01/10 00:53:34;;;;;;;3.27;2.60;;;;;;;;;;5053217;22;20238;-80
2023/01/10 00:56:01;;;;;;;3.07;2.10;;;;;;;;;;5051027;28;20241;-79
2023/01/10 00:58:29;;;;;;;2.33;2.23;;;;;;;;;;5052056;28;20213;-80
2023/01/10 01:00:56;;;;;;;2.30;2.10;;;;;;;;;;5051607;28;20237;-79
2023/01/10 01:03:23;;;;;;;2.20;2.10;;;;;;;;;;5051860;28;20238;-80
2023/01/10 01:05:51;;;;;;;2.20;2.03;;;;;;;;;;5051463;28;20236;-79
2023/01/10 01:08:18;;;;;;;2.30;2.10;;;;;;;;;;5051386;28;20217;-79
2023/01/10 01:10:46;;;;;;;2.10;1.90;;;;;;;;;;5051186;28;20359;-80
2023/01/10 01:13:14;;;;;;;2.10;2.00;;;;;;;;;;5051553;28;20719;-79
2023/01/10 01:15:42;;;;;;;2.00;1.83;;;;;;;;;;5051256;28;20705;-80
2023/01/10 01:18:11;;;;;;;2.73;1.97;;;;;;;;;;5052090;28;20214;-80
2023/01/10 01:20:39;;;;;;;2.23;2.13;;;;;;;;;;5051277;28;20721;-80
2023/01/10 01:23:06;;;;;;;3.60;2.30;;;;;;;;;;5051579;28;20230;-79
2023/01/10 01:25:33;;;;;;;2.67;2.47;;;;;;;;;;5051543;28;20241;-79
2023/01/10 01:28:00;;;;;;;2.10;2.00;;;;;;;;;;5051657;28;20206;-79
2023/01/10 01:30:27;;;;;;;2.07;1.90;;;;;;;;;;5051311;28;20232;-80
2023/01/10 01:32:56;;;;;;;2.93;1.90;;;;;;;;;;5051401;28;20233;-79
2023/01/10 01:35:23;;;;;;;2.87;2.23;;;;;;;;;;5051415;28;20252;-80
2023/01/10 01:37:51;;;;;;;1.90;1.80;;;;;;;;;;5051883;28;20549;-80
2023/01/10 01:40:18;;;;;;;2.57;2.37;;;;;;;;;;5051393;28;20245;-79
2023/01/10 01:42:46;;;;;;;2.30;2.07;;;;;;;;;;5051502;28;20230;-80
2023/01/10 01:45:29;;;;;;;2.30;2.10;;;;;;;;;;5050978;28;20210;-79
2023/01/10 01:47:58;;;;;;;2.37;1.97;;;;;;;;;;5051524;28;20186;-80
2023/01/10 01:50:28;;;;;;;3.90;1.80;;;;;;;;;;5051064;28;20234;-79
2023/01/10 01:52:57;;;;;;;2.00;1.90;;;;;;;;;;5051127;28;20237;-80
2023/01/10 01:55:25;;;;;;;1.70;1.60;;;;;;;;;;5051116;28;20248;-80
2023/01/10 01:57:53;;;;;;;2.07;1.97;;;;;;;;;;5051326;28;20206;-80
2023/01/10 02:00:21;;;;;;;2.20;1.93;;;;;;;;;;5050989;28;20226;-80
2023/01/10 02:02:51;;;;;;;1.80;1.80;;;;;;;;;;5051077;28;20226;-79
2023/01/10 02:05:21;;;;;;;1.90;1.80;;;;;;;;;;5051385;28;20275;-79
2023/01/10 02:07:49;;;;;;;2.83;1.80;;;;;;;;;;5033987;28;20206;-79
2023/01/10 02:10:18;;;;;;;2.00;1.90;;;;;;;;;;5039035;28;20240;-79
2023/01/10 02:12:45;;;;;;;1.80;1.70;;;;;;;;;;5051277;28;20266;-80
2023/01/10 02:15:13;;;;;;;1.80;1.70;;;;;;;;;;5032819;28;20202;-79
2023/01/10 02:17:40;;;;;;;2.20;1.87;;;;;;;;;;5031767;28;20207;-80
2023/01/10 02:20:09;;;;;;;1.80;1.70;;;;;;;;;;5032886;28;20206;-80
2023/01/10 02:22:56;;;;;;;1.90;1.80;;;;;;;;;;5034552;28;20701;-79
2023/01/10 02:25:46;;;;;;;1.80;1.70;;;;;;;;;;5035967;28;20734;-80
2023/01/10 02:28:33;;;;;;;1.87;1.80;;;;;;;;;;5054787;28;20677;-80
2023/01/10 02:31:13;;;;;;;1.70;1.60;;;;;;;;;;5054648;28;20226;-82
2023/01/10 02:33:45;;;;;;;1.73;1.70;;;;;;;;;;5054722;28;20729;-81
2023/01/10 02:36:29;;;;;;;1.60;1.60;;;;;;;;;;5054382;28;20248;-81
2023/01/10 02:38:59;;;;;;;1.80;1.70;;;;;;;;;;5054537;28;20208;-82
2023/01/10 02:41:29;;;;;;;1.63;1.60;;;;;;;;;;5054084;28;20236;-82
2023/01/10 02:43:59;;;;;;;1.40;1.40;;;;;;;;;;5054274;28;20220;-81
2023/01/10 02:46:28;;;;;;;1.67;1.67;;;;;;;;;;5054173;28;20237;-82
2023/01/10 02:48:57;;;;;;;1.90;1.80;;;;;;;;;;5054707;28;20217;-81
2023/01/10 02:51:26;;;;;;;1.93;1.70;;;;;;;;;;5053882;28;20241;-82
2023/01/10 02:53:54;;;;;;;1.70;1.70;;;;;;;;;;5054206;28;20217;-82
2023/01/10 02:56:31;;;;;;;2.00;1.90;;;;;;;;;;5053808;28;20716;-82
2023/01/10 02:59:16;;;;;;;1.57;1.57;;;;;;;;;;5054246;28;20204;-82
2023/01/10 03:01:49;;;;;;;1.80;1.70;;;;;;;;;;5053779;28;20237;-82
2023/01/10 03:04:24;;;;;;;2.00;1.70;;;;;;;;;;5054285;28;20245;-81
2023/01/10 03:06:55;;;;;;;1.80;1.80;;;;;;;;;;5053798;28;20241;-82
2023/01/10 03:09:24;;;;;;;2.70;1.80;;;;;;;;;;5054109;28;20185;-82
2023/01/10 03:11:57;;;;;;;2.73;1.97;;;;;;;;;;5053524;28;20242;-81
2023/01/10 03:14:26;;;;;;;3.13;1.93;;;;;;;;;;5054003;28;20297;-81
2023/01/10 03:16:56;;;;;;;2.70;1.90;;;;;;;;;;5053430;28;20709;-82
2023/01/10 03:19:25;;;;;;;4.40;1.90;;;;;;;;;;5053775;28;20201;-82
2023/01/10 03:21:54;;;;;;;3.43;2.00;;;;;;;;;;5053289;28;20729;-82
2023/01/10 03:24:24;;;;;;;2.10;2.00;;;;;;;;;;5053852;28;20248;-82
2023/01/10 03:26:54;;;;;;;2.00;1.90;;;;;;;;;;5053157;28;20237;-82
2023/01/10 03:29:25;;;;;;;2.37;2.17;;;;;;;;;;5053700;28;20209;-81
2023/01/10 03:31:55;;;;;;;2.90;2.30;;;;;;;;;;5052937;28;20238;-82
2023/01/10 03:34:23;;;;;;;3.77;2.10;;;;;;;;;;5053383;28;20199;-82
2023/01/10 03:36:56;;;;;;;2.80;2.00;;;;;;;;;;5053187;28;20247;-82
2023/01/10 03:39:26;;;;;;;2.53;2.00;;;;;;;;;;5053381;28;20198;-82
2023/01/10 03:41:57;;;;;;;2.20;2.03;;;;;;;;;;5052957;28;20241;-81
2023/01/10 03:44:43;;;;;;;2.17;2.00;;;;;;;;;;5053401;28;20217;-82
2023/01/10 03:47:12;;;;;;;2.30;2.10;;;;;;;;;;5053038;28;20230;-81
2023/01/10 03:49:41;;;;;;;2.67;1.90;;;;;;;;;;5053411;28;20581;-82
2023/01/10 03:52:11;;;;;;;6.73;2.40;;;;;;;;;;5052381;28;20425;-82
2023/01/10 03:54:38;;;;;;;2.27;2.07;;;;;;;;;;5053148;28;20678;-82
2023/01/10 03:57:06;;;;;;;2.83;2.10;;;;;;;;;;5052643;28;20245;-82
2023/01/10 03:59:33;;;;;;;2.10;1.87;;;;;;;;;;5053045;28;20214;-81
2023/01/10 04:02:00;;;;;;;2.53;2.00;;;;;;;;;;5052472;28;20240;-81
2023/01/10 04:04:27;;;;;;;3.17;2.13;;;;;;;;;;5053085;28;20308;-81
2023/01/10 04:06:54;;;;;;;6.60;2.73;;;;;;;;;;5052519;28;20241;-82
2023/01/10 04:09:23;;;;;;;2.40;2.20;;;;;;;;;;5053206;28;20206;-81
2023/01/10 04:11:50;;;;;;;2.80;2.13;;;;;;;;;;5052727;28;20238;-81
2023/01/10 04:14:17;;;;;;;4.37;2.50;;;;;;;;;;5052350;28;20559;-81
2023/01/10 04:16:45;;;;;;;2.70;2.20;;;;;;;;;;5052393;28;20237;-82
2023/01/10 04:19:12;;;;;;;2.27;2.17;;;;;;;;;;5052829;28;20221;-81
2023/01/10 04:21:39;;;;;;;3.10;2.30;;;;;;;;;;5052403;28;20237;-81
2023/01/10 04:24:06;;;;;;;2.80;2.20;;;;;;;;;;5052473;28;20238;-82
2023/01/10 04:26:35;;;;;;;2.83;2.20;;;;;;;;;;5052051;28;20240;-81
2023/01/10 04:29:02;;;;;;;3.50;2.30;;;;;;;;;;5052558;28;20217;-81
2023/01/10 04:31:29;;;;;;;3.00;2.27;;;;;;;;;;5052000;28;20726;-82
2023/01/10 04:33:56;;;;;;;6.93;2.23;;;;;;;;;;5052107;28;20543;-81
2023/01/10 04:36:23;;;;;;;3.17;2.20;;;;;;;;;;5052066;28;20606;-82
2023/01/10 04:38:50;;;;;;;5.33;2.30;;;;;;;;;;5052595;28;20206;-81
2023/01/10 04:41:17;;;;;;;2.27;2.10;;;;;;;;;;5051806;28;20238;-82
2023/01/10 04:43:46;;;;;;;6.17;2.47;;;;;;;;;;5051555;28;20244;-81
2023/01/10 04:46:13;;;;;;;2.33;2.07;;;;;;;;;;5051656;28;20234;-81
2023/01/10 04:48:40;;;;;;;3.27;2.00;;;;;;;;;;5052195;28;20205;-82
2023/01/10 04:51:07;;;;;;;4.47;2.20;;;;;;;;;;5051721;28;20248;-81
2023/01/10 04:53:34;;;;;;;4.93;2.60;;;;;;;;;;5051765;28;20240;-82
2023/01/10 04:56:04;;;;;;;6.77;2.90;;;;;;;;;;5051608;28;20229;-81
2023/01/10 04:58:33;;;;;;;4.33;2.50;;;;;;;;;;5052091;28;20205;-81
2023/01/10 05:01:07;;;;;;;3.10;2.53;;;;;;;;;;5051682;28;20285;-81
2023/01/10 05:03:34;;;;;;;3.77;2.60;;;;;;;;;;5051663;28;20885;-82
2023/01/10 05:06:01;;;;;;;7.30;3.07;;;;;;;;;;5051708;28;20256;-82
2023/01/10 05:08:28;;;;;;;3.50;2.43;;;;;;;;;;5051884;28;20220;-81
2023/01/10 05:10:55;;;;;;;3.03;2.67;;;;;;;;;;5051579;28;20236;-82
2023/01/10 05:13:23;;;;;;;5.87;2.90;;;;;;;;;;5051749;28;20225;-81
2023/01/10 05:15:50;;;;;;;7.03;2.70;;;;;;;;;;5051529;28;20682;-81
2023/01/10 05:18:19;;;;;;;4.23;3.30;;;;;;;;;;5051695;28;20212;-81
2023/01/10 05:20:46;;;;;;;3.90;2.80;;;;;;;;;;5051262;28;20233;-81
2023/01/10 05:23:13;;;;;;;5.33;2.63;;;;;;;;;;5051294;28;20713;-81
2023/01/10 05:25:40;;;;;;;4.83;2.70;;;;;;;;;;5051399;28;20236;-81
2023/01/10 05:28:07;;;;;;;7.63;3.10;;;;;;;;;;5051789;28;20209;-81
2023/01/10 05:30:34;;;;;;;6.87;2.97;;;;;;;;;;5051270;28;20225;-81
2023/01/10 05:33:01;;;;;;;4.67;2.50;;;;;;;;;;5051417;28;20236;-81
2023/01/10 05:35:30;;;;;;;9.00;3.13;;;;;;;;;;5050706;28;20241;-81
2023/01/10 05:37:57;;;;;;;7.37;2.60;;;;;;;;;;5051811;28;20247;-81
2023/01/10 05:40:24;;;;;;;4.30;2.80;;;;;;;;;;5051282;28;20237;-80
2023/01/10 05:42:51;;;;;;;4.63;3.20;;;;;;;;;;5051180;28;20244;-81
2023/01/10 05:45:18;;;;;;;4.50;2.67;;;;;;;;;;5051443;28;20230;-80
2023/01/10 05:47:45;;;;;;;3.80;2.73;;;;;;;;;;5051998;28;20205;-81
2023/01/10 05:50:12;;;;;;;5.37;2.80;;;;;;;;;;5051031;28;20264;-80
2023/01/10 05:52:40;;;;;;;5.90;3.07;;;;;;;;;;5051024;28;20253;-80
2023/01/10 05:55:08;;;;;;;3.97;3.13;;;;;;;;;;5054737;28;20209;-81
2023/01/10 05:57:35;;;;;;;6.23;3.20;;;;;;;;;;5055504;28;20206;-81
2023/01/10 06:00:02;;;;;;;2.67;2.47;;;;;;;;;;5054659;28;20198;-82
2023/01/10 06:02:29;;;;;;;4.80;3.00;;;;;;;;;;5055049;28;20647;-80
2023/01/10 06:04:56;;;;;;;5.80;3.40;;;;;;;;;;5054519;28;20221;-80
2023/01/10 06:07:23;;;;;;;5.90;3.70;;;;;;;;;;5055211;28;20201;-81
2023/01/10 06:09:52;;;;;;;8.77;2.87;;;;;;;;;;5055108;28;20209;-81
2023/01/10 06:12:19;;;;;;;2.90;2.60;;;;;;;;;;5054565;28;20226;-79
2023/01/10 06:14:46;;;;;;;4.23;2.30;;;;;;;;;;5055327;28;20214;-79
2023/01/10 06:17:13;;;;;;;5.93;3.33;;;;;;;;;;5054382;28;20238;-78
2023/01/10 06:19:40;;;;;;;6.20;3.13;;;;;;;;;;5055008;28;20213;-78
2023/01/10 06:22:07;;;;;;;6.60;3.27;;;;;;;;;;5054228;28;20245;-78
2023/01/10 06:24:34;;;;;;;7.23;2.67;;;;;;;;;;5055075;28;20324;-78
2023/01/10 06:27:03;;;;;;;4.27;2.70;;;;;;;;;;5054302;28;20236;-79
2023/01/10 06:29:30;;;;;;;5.20;3.10;;;;;;;;;;5054692;28;20555;-78
2023/01/10 06:31:57;;;;;;;9.77;2.90;;;;;;;;;;5054246;28;20252;-78
2023/01/10 06:34:24;;;;;;;5.33;3.03;;;;;;;;;;5054766;28;20210;-79
2023/01/10 06:36:51;;;;;;;3.63;2.80;;;;;;;;;;5054006;28;20241;-79
2023/01/10 06:39:18;;;;;;;6.17;2.60;;;;;;;;;;5054584;28;20212;-79
2023/01/10 06:41:45;;;;;;;7.07;3.20;;;;;;;;;;5053979;28;20264;-79
2023/01/10 06:44:14;;;;;;;7.70;3.50;;;;;;;;;;5054159;28;20604;-79
2023/01/10 06:46:41;;;;;;;7.37;3.20;;;;;;;;;;5053898;28;20244;-79
2023/01/10 06:49:08;;;;;;;4.10;2.70;;;;;;;;;;5054554;28;20205;-79
2023/01/10 06:51:35;;;;;;;4.87;3.13;;;;;;;;;;5053847;28;20260;-79
2023/01/10 06:54:02;;;;;;;8.77;4.30;;;;;;;;;;5054305;28;20735;-76
2023/01/10 06:56:29;;;;;;;6.57;3.57;;;;;;;;;;5053884;28;20590;-76
2023/01/10 06:58:56;;;;;;;6.60;3.50;;;;;;;;;;5053937;28;20661;-76
2023/01/10 07:01:25;;;;;;;10.10;3.63;;;;;;;;;;5053563;28;20244;-76
2023/01/10 07:03:52;;;;;;;7.93;3.40;;;;;;;;;;5053930;28;20253;-76
2023/01/10 07:06:19;;;;;;;6.83;2.67;;;;;;;;;;5052830;28;20601;-76
2023/01/10 07:08:46;;;;;;;7.27;3.00;;;;;;;;;;5053831;28;20751;-76
2023/01/10 07:11:14;;;;;;;7.87;3.87;;;;;;;;;;5053205;28;20237;-76
2023/01/10 07:13:41;;;;;;;4.43;3.20;;;;;;;;;;5053517;28;20231;-76
2023/01/10 07:16:09;;;;;;;6.37;3.63;;;;;;;;;;5053308;28;20237;-76
2023/01/10 07:18:38;;;;;;;5.10;3.23;;;;;;;;;;5053640;28;20207;-76
2023/01/10 07:21:06;;;;;;;18.73;3.20;;;;;;;;;;5052954;28;20793;-76
2023/01/10 07:23:33;;;;;;;4.83;3.20;;;;;;;;;;5053060;28;20255;-76
2023/01/10 07:26:03;;;;;;;8.30;3.27;;;;;;;;;;5052888;28;20229;-76
2023/01/10 07:28:30;;;;;;;6.50;2.70;;;;;;;;;;5053461;28;20205;-76
2023/01/10 07:30:59;;;;;;;8.23;3.80;;;;;;;;;;5052680;28;20740;-76
2023/01/10 07:33:26;;;;;;;6.90;2.80;;;;;;;;;;5052964;28;20224;-76
2023/01/10 07:35:54;;;;;;;6.43;3.10;;;;;;;;;;5052603;28;20619;-76
2023/01/10 07:38:21;;;;;;;7.87;3.37;;;;;;;;;;5052996;28;20208;-76
2023/01/10 07:40:48;;;;;;;8.27;3.87;;;;;;;;;;5052564;28;20239;-75
2023/01/10 07:43:15;;;;;;;6.50;3.10;;;;;;;;;;5052962;28;20229;-76
2023/01/10 07:45:42;;;;;;;5.43;3.27;;;;;;;;;;5052321;28;20705;-76
2023/01/10 07:48:10;;;;;;;3.93;3.40;;;;;;;;;;5053214;28;20207;-76
2023/01/10 07:50:37;;;;;;;9.60;3.30;;;;;;;;;;5052424;28;20737;-76
2023/01/10 07:53:07;;;;;;;7.47;3.60;;;;;;;;;;5052193;28;20236;-76
2023/01/10 07:55:37;;;;;;;10.97;3.90;;;;;;;;;;5052359;28;20582;-76
2023/01/10 07:58:05;;;;;;;9.77;3.90;;;;;;;;;;5052512;28;20208;-76
2023/01/10 08:00:33;;;;;;;6.27;3.20;;;;;;;;;;5052348;28;20236;-76
2023/01/10 08:03:00;;;;;;;2.83;2.00;;;;;;;;;;5039020;28;20229;-75
2023/01/10 08:05:27;;;;;;;8.77;3.90;;;;;;;;;;5032282;28;20699;-75
2023/01/10 08:07:55;;;;;;;9.23;3.33;;;;;;;;;;5032734;28;20206;-75
2023/01/10 08:10:24;;;;;;;6.83;3.40;;;;;;;;;;5032426;28;20319;-75
2023/01/10 08:12:51;;;;;;;9.87;3.70;;;;;;;;;;5032522;28;20320;-75
2023/01/10 08:15:18;;;;;;;7.70;3.57;;;;;;;;;;5032253;28;20237;-75
2023/01/10 08:17:45;;;;;;;11.47;4.33;;;;;;;;;;5031772;28;20214;-76
2023/01/10 08:20:13;;;;;;;16.63;3.90;;;;;;;;;;5032068;28;20250;-76
2023/01/10 08:22:40;;;;;;;9.40;4.10;;;;;;;;;;5032500;28;20236;-76
2023/01/10 08:25:08;;;;;;;12.33;4.03;;;;;;;;;;5031877;28;20237;-76
2023/01/10 08:27:37;;;;;;;5.40;3.53;;;;;;;;;;5032587;28;20217;-76
2023/01/10 08:30:04;;;;;;;6.03;3.50;;;;;;;;;;5031685;28;20219;-77
2023/01/10 08:32:31;;;;;;;8.57;3.70;;;;;;;;;;5032239;28;20233;-77
2023/01/10 08:34:58;;;;;;;11.47;3.90;;;;;;;;;;5031678;28;20731;-78
2023/01/10 08:37:25;;;;;;;11.23;3.67;;;;;;;;;;5032405;28;20212;-78
2023/01/10 08:39:53;;;;;;;10.33;4.27;;;;;;;;;;5031754;28;20216;-79
2023/01/10 08:42:20;;;;;;;10.93;3.83;;;;;;;;;;5032145;28;20330;-78
2023/01/10 08:44:48;;;;;;;8.37;3.53;;;;;;;;;;5032344;28;20601;-78
2023/01/10 08:47:15;;;;;;;5.03;3.30;;;;;;;;;;5031728;28;20609;-78
2023/01/10 08:49:42;;;;;;;7.47;3.67;;;;;;;;;;5032047;28;20667;-78
2023/01/10 08:52:09;;;;;;;14.40;4.10;;;;;;;;;;5030962;28;20243;-78
2023/01/10 08:54:36;;;;;;;10.67;3.47;;;;;;;;;;5032124;28;20212;-77
2023/01/10 08:57:03;;;;;;;9.83;3.37;;;;;;;;;;5031277;28;20245;-78
2023/01/10 08:59:30;;;;;;;9.80;3.40;;;;;;;;;;5032034;28;20224;-77
2023/01/10 09:01:59;;;;;;;3.93;3.00;;;;;;;;;;5036159;28;20248;-77
2023/01/10 09:04:27;;;;;;;11.17;3.60;;;;;;;;;;5051671;28;20222;-77
2023/01/10 09:06:54;;;;;;;6.77;3.50;;;;;;;;;;5051223;28;20257;-77
2023/01/10 09:09:21;;;;;;;17.03;4.10;;;;;;;;;;5051540;28;20206;-77
2023/01/10 09:11:48;;;;;;;10.87;3.83;;;;;;;;;;5051024;28;20242;-77
2023/01/10 09:14:16;;;;;;;5.23;3.37;;;;;;;;;;5051414;28;20654;-76
2023/01/10 09:16:43;;;;;;;6.43;2.63;;;;;;;;;;5051141;28;20729;-76
2023/01/10 09:19:12;;;;;;;8.00;3.57;;;;;;;;;;5051477;28;20202;-77
2023/01/10 09:21:39;;;;;;;10.23;3.93;;;;;;;;;;5051023;28;20590;-76
2023/01/10 09:24:06;;;;;;;8.73;3.10;;;;;;;;;;5051209;28;20216;-77
2023/01/10 09:26:33;;;;;;;8.33;4.43;;;;;;;;;;5050935;28;20734;-77
2023/01/10 09:29:00;;;;;;;15.17;3.93;;;;;;;;;;5055396;28;20202;-77
2023/01/10 09:31:27;;;;;;;8.77;3.43;;;;;;;;;;5057739;28;20243;-77
2023/01/10 09:33:54;;;;;;;8.70;5.70;;;;;;;;;;5057762;28;20214;-77
2023/01/10 09:36:23;;;;;;;5.87;3.20;;;;;;;;;;5058013;28;20240;-77
2023/01/10 09:38:50;;;;;;;11.60;2.83;;;;;;;;;;5058045;28;20235;-77
2023/01/10 09:41:34;;;;;;;12.50;3.57;;;;;;;;;;5057730;28;20863;-77
2023/01/10 09:44:04;;;;;;;6.17;3.40;;;;;;;;;;5057887;28;20217;-77
2023/01/10 09:46:38;;;;;;;4.47;2.70;;;;;;;;;;5057652;28;20256;-77
2023/01/10 09:49:15;;;;;;;16.63;4.57;;;;;;;;;;5057820;28;20198;-77
2023/01/10 09:51:44;;;;;;;7.87;3.40;;;;;;;;;;5057515;28;20241;-77
2023/01/10 09:54:13;;;;;;;6.43;2.80;;;;;;;;;;5057742;28;20213;-77
2023/01/10 09:56:41;;;;;;;7.53;2.70;;;;;;;;;;5057448;28;20263;-77
2023/01/10 09:59:12;;;;;;;7.10;3.23;;;;;;;;;;5058057;28;20212;-77
2023/01/10 10:01:39;;;;;;;8.27;3.50;;;;;;;;;;5055106;28;20608;-77
2023/01/10 10:04:13;;;;;;;7.27;3.23;;;;;;;;;;5037662;28;20221;-77
2023/01/10 10:06:42;;;;;;;12.03;2.83;;;;;;;;;;5037504;28;20236;-77
2023/01/10 10:09:12;;;;;;;3.73;2.20;;;;;;;;;;5037728;28;20228;-77
2023/01/10 10:11:46;;;;;;;7.83;3.00;;;;;;;;;;5037522;28;20256;-77
2023/01/10 10:14:18;;;;;;;6.47;2.43;;;;;;;;;;5037898;28;20298;-78
2023/01/10 10:16:54;;;;;;;7.90;3.00;;;;;;;;;;5037542;28;20237;-78
2023/01/10 10:19:24;;;;;;;3.57;2.20;;;;;;;;;;5038005;28;20188;-78
2023/01/10 10:21:54;;;;;;;15.73;3.33;;;;;;;;;;5037300;28;20859;-76
2023/01/10 10:24:30;;;;;;;11.97;3.30;;;;;;;;;;5037640;28;20700;-77
2023/01/10 10:26:59;;;;;;;9.17;2.93;;;;;;;;;;5037426;28;20241;-77
2023/01/10 10:29:36;;;;;;;8.37;2.83;;;;;;;;;;5037939;28;20202;-77
2023/01/10 10:32:18;;;;;;;5.73;2.57;;;;;;;;;;5036807;28;20617;-77
2023/01/10 10:34:47;;;;;;;7.20;3.00;;;;;;;;;;5037469;28;20689;-77
2023/01/10 10:37:19;;;;;;;11.53;3.43;;;;;;;;;;5036929;28;20238;-77
2023/01/10 10:39:50;;;;;;;13.60;3.40;;;;;;;;;;5035594;28;20211;-76
2023/01/10 10:42:18;;;;;;;9.27;3.20;;;;;;;;;;5033883;28;20237;-77
2023/01/10 10:44:47;;;;;;;6.80;2.83;;;;;;;;;;5034493;28;20237;-78
2023/01/10 10:47:16;;;;;;;4.53;2.17;;;;;;;;;;5033755;28;20242;-78
2023/01/10 10:49:44;;;;;;;7.80;2.50;;;;;;;;;;5034245;28;20685;-76
2023/01/10 10:52:15;;;;;;;7.07;2.97;;;;;;;;;;5033832;28;20239;-77
2023/01/10 10:54:42;;;;;;;5.83;2.63;;;;;;;;;;5034550;28;20292;-76
2023/01/10 10:57:12;;;;;;;8.90;3.90;;;;;;;;;;5033655;28;20238;-77
2023/01/10 10:59:39;;;;;;;10.10;4.33;;;;;;;;;;5034090;28;20248;-76
2023/01/10 11:02:12;;;;;;;10.70;4.60;;;;;;;;;;5033320;28;20718;-77
2023/01/10 11:04:40;;;;;;;5.63;2.47;;;;;;;;;;5034294;28;20206;-76
2023/01/10 11:07:09;;;;;;;7.63;2.90;;;;;;;;;;5033537;28;20596;-76
2023/01/10 11:09:36;;;;;;;10.73;2.97;;;;;;;;;;5034105;28;20203;-77
2023/01/10 11:12:04;;;;;;;7.83;2.83;;;;;;;;;;5033376;28;20238;-76
2023/01/10 11:14:46;;;;;;;9.97;3.03;;;;;;;;;;5034111;28;20206;-76
2023/01/10 11:17:21;;;;;;;9.50;3.23;;;;;;;;;;5032123;28;20630;-77
2023/01/10 11:19:59;;;;;;;11.10;3.03;;;;;;;;;;5034558;28;20230;-76
2023/01/10 11:22:26;;;;;;;9.07;3.00;;;;;;;;;;5034379;28;20307;-76
2023/01/10 11:24:55;;;;;;;7.67;3.60;;;;;;;;;;5039166;28;20235;-77
2023/01/10 11:27:23;;;;;;;9.47;3.17;;;;;;;;;;5037225;28;20214;-77
2023/01/10 11:29:51;;;;;;;9.50;2.70;;;;;;;;;;5034362;28;20214;-76
2023/01/10 11:32:23;;;;;;;8.17;3.00;;;;;;;;;;5033970;28;20234;-77
2023/01/10 11:34:53;;;;;;;18.83;3.10;;;;;;;;;;5034290;28;20214;-77
2023/01/10 11:37:23;;;;;;;8.57;3.33;;;;;;;;;;5033788;28;20269;-77
2023/01/10 11:39:50;;;;;;;8.83;2.93;;;;;;;;;;5034878;28;20217;-78
2023/01/10 11:42:28;;;;;;;8.93;3.13;;;;;;;;;;5033853;28;20684;-77
2023/01/10 11:44:55;;;;;;;6.40;2.70;;;;;;;;;;5033498;28;20222;-78
2023/01/10 11:47:24;;;;;;;5.97;3.10;;;;;;;;;;5033864;28;20213;-77
2023/01/10 11:49:51;;;;;;;12.13;2.90;;;;;;;;;;5033447;28;20675;-79
2023/01/10 11:52:21;;;;;;;8.23;2.83;;;;;;;;;;5033270;28;20230;-78
2023/01/10 11:54:48;;;;;;;5.27;2.60;;;;;;;;;;5033718;28;20697;-78
2023/01/10 11:57:16;;;;;;;11.33;3.30;;;;;;;;;;5033693;28;20237;-76
2023/01/10 11:59:51;;;;;;;9.03;3.10;;;;;;;;;;5034518;28;20199;-75
2023/01/10 12:02:21;;;;;;;12.70;3.67;;;;;;;;;;5033782;28;20623;-77
2023/01/10 12:04:50;;;;;;;12.30;4.00;;;;;;;;;;5033792;28;20211;-78
2023/01/10 12:07:17;;;;;;;7.87;3.43;;;;;;;;;;5033275;28;20662;-77
2023/01/10 12:09:45;;;;;;;6.77;3.43;;;;;;;;;;5033512;28;20202;-76
2023/01/10 12:12:17;;;;;;;14.87;2.77;;;;;;;;;;5032288;28;20234;-76
2023/01/10 12:14:46;;;;;;;12.77;3.67;;;;;;;;;;5033319;28;20241;-77
2023/01/10 12:17:19;;;;;;;10.10;3.37;;;;;;;;;;5033228;28;20270;-76
2023/01/10 12:19:46;;;;;;;9.33;3.50;;;;;;;;;;5033343;28;20564;-77
2023/01/10 12:22:15;;;;;;;5.50;2.97;;;;;;;;;;5032454;28;20245;-78
2023/01/10 12:24:44;;;;;;;6.63;2.80;;;;;;;;;;5032874;28;20322;-78
2023/01/10 12:27:13;;;;;;;11.60;3.30;;;;;;;;;;5032248;28;20257;-78
2023/01/10 12:29:41;;;;;;;8.13;3.37;;;;;;;;;;5032820;28;20207;-78
2023/01/10 12:32:13;;;;;;;7.70;2.73;;;;;;;;;;5032284;28;20238;-77
2023/01/10 12:34:42;;;;;;;15.83;3.53;;;;;;;;;;5033009;28;20222;-77
2023/01/10 12:37:13;;;;;;;15.07;3.97;;;;;;;;;;5032256;28;20230;-78
2023/01/10 12:39:44;;;;;;;17.83;3.43;;;;;;;;;;5033167;28;20643;-77
2023/01/10 12:45:10;;;;;;;7.70;3.00;;;;;;;;;;5031764;28;20214;-79
2023/01/10 12:47:53;;;;;;;8.80;3.00;;;;;;;;;;5032147;28;20694;-76
2023/01/10 12:50:22;;;;;;;11.07;3.53;;;;;;;;;;5031849;28;20635;-78
2023/01/10 12:52:51;;;;;;;9.43;3.47;;;;;;;;;;5032184;28;20231;-78
2023/01/10 12:55:21;;;;;;;4.97;2.30;;;;;;;;;;5032252;28;20237;-78
2023/01/10 12:57:48;;;;;;;10.53;3.03;;;;;;;;;;5032212;28;20206;-78
2023/01/10 13:00:19;;;;;;;6.60;2.63;;;;;;;;;;5031452;28;20239;-78
2023/01/10 13:02:47;;;;;;;6.07;3.60;;;;;;;;;;5042619;28;20226;-78
2023/01/10 13:05:18;;;;;;;9.00;2.63;;;;;;;;;;5051373;28;20316;-78
2023/01/10 13:07:48;;;;;;;6.90;2.83;;;;;;;;;;5052129;28;20232;-78
2023/01/10 13:10:17;;;;;;;9.63;3.10;;;;;;;;;;5051392;28;20233;-78
2023/01/10 13:12:47;;;;;;;11.70;3.33;;;;;;;;;;5051821;28;20729;-78
2023/01/10 13:15:18;;;;;;;8.97;3.60;;;;;;;;;;5051867;28;20248;-77
2023/01/10 13:17:47;;;;;;;8.70;3.30;;;;;;;;;;5055454;28;20210;-78
2023/01/10 13:20:28;;;;;;;20.67;3.80;;;;;;;;;;5051786;28;20237;-78
2023/01/10 13:22:56;;;;;;;10.20;4.23;;;;;;;;;;5051679;28;20226;-78
2023/01/10 13:25:24;;;;;;;9.97;3.30;;;;;;;;;;5051636;28;20230;-78
2023/01/10 13:27:56;;;;;;;8.13;3.10;;;;;;;;;;5052788;28;20206;-75
2023/01/10 13:30:31;;;;;;;12.83;3.00;;;;;;;;;;5051853;28;20236;-78
2023/01/10 13:33:02;;;;;;;11.87;2.50;;;;;;;;;;5051982;28;20233;-77
2023/01/10 13:35:37;;;;;;;16.97;3.43;;;;;;;;;;5052003;28;20237;-76
2023/01/10 13:38:04;;;;;;;5.07;2.43;;;;;;;;;;5052063;28;20224;-76
2023/01/10 13:40:31;;;;;;;4.80;2.73;;;;;;;;;;5051753;28;20233;-77
2023/01/10 13:43:19;;;;;;;9.40;3.07;;;;;;;;;;5051703;28;20278;-77
2023/01/10 13:45:48;;;;;;;8.27;3.40;;;;;;;;;;5051246;28;20238;-77
2023/01/10 13:48:26;;;;;;;4.90;2.43;;;;;;;;;;5051325;28;20210;-77
2023/01/10 13:51:12;;;;;;;4.13;2.63;;;;;;;;;;5051350;28;20225;-78
2023/01/10 13:53:58;;;;;;;3.67;2.10;;;;;;;;;;5051388;28;20225;-77
2023/01/10 13:56:33;;;;;;;13.47;3.70;;;;;;;;;;5051692;28;20238;-77
2023/01/10 14:04:36;;;;;;;7.80;2.70;;;;;;;;;;5032006;28;20266;-77
2023/01/10 14:07:05;;;;;;;11.33;3.20;;;;;;;;;;5031152;28;20242;-77
2023/01/10 14:09:41;;;;;;;10.07;3.50;;;;;;;;;;5031703;28;20210;-77
2023/01/10 14:12:16;;;;;;;9.60;2.90;;;;;;;;;;5030972;28;20243;-76
2023/01/10 14:14:50;;;;;;;10.00;3.80;;;;;;;;;;5031890;28;20626;-77
2023/01/10 14:17:22;;;;;;;12.67;3.40;;;;;;;;;;5035342;28;20221;-77
2023/01/10 14:19:58;;;;;;;11.93;4.20;;;;;;;;;;5035548;28;20229;-77
2023/01/10 14:22:28;;;;;;;9.80;3.57;;;;;;;;;;5034745;28;20602;-77
2023/01/10 14:24:55;;;;;;;9.00;3.80;;;;;;;;;;5036427;28;20211;-77
2023/01/10 14:27:23;;;;;;;10.00;2.83;;;;;;;;;;5035078;28;20231;-77
2023/01/10 14:29:51;;;;;;;3.27;2.53;;;;;;;;;;5035058;28;20205;-77
2023/01/10 14:32:22;;;;;;;15.37;3.77;;;;;;;;;;5034274;28;20237;-77
2023/01/10 14:34:51;;;;;;;11.73;3.57;;;;;;;;;;5034745;28;20218;-77
2023/01/10 14:37:23;;;;;;;14.23;3.40;;;;;;;;;;5034503;28;20225;-77
2023/01/10 14:39:51;;;;;;;9.67;3.30;;;;;;;;;;5034283;28;20733;-79
2023/01/10 14:42:19;;;;;;;4.53;2.13;;;;;;;;;;5035571;28;20227;-76
2023/01/10 14:44:50;;;;;;;16.80;4.47;;;;;;;;;;5034914;28;20210;-77
2023/01/10 14:47:27;;;;;;;9.80;3.20;;;;;;;;;;5034679;28;20241;-77
2023/01/10 14:49:56;;;;;;;8.43;3.30;;;;;;;;;;5034045;28;20233;-77
2023/01/10 14:52:25;;;;;;;8.10;3.07;;;;;;;;;;5034125;28;20242;-77
2023/01/10 14:54:55;;;;;;;4.50;2.67;;;;;;;;;;5033897;28;20199;-77
2023/01/10 14:57:22;;;;;;;10.17;3.40;;;;;;;;;;5034548;28;20194;-77
2023/01/10 14:59:50;;;;;;;8.60;3.53;;;;;;;;;;5034223;28;20214;-77
2023/01/10 15:02:21;;;;;;;13.13;3.80;;;;;;;;;;5041084;28;20229;-77
2023/01/10 15:04:53;;;;;;;9.33;4.00;;;;;;;;;;5054354;28;20245;-77
2023/01/10 15:07:22;;;;;;;8.57;3.53;;;;;;;;;;5053529;28;20261;-77